createdAt,value
2019-03-15T00:01:42.237Z,66.20
2019-03-15T00:03:47.786Z,66.20
2019-03-15T00:05:53.220Z,66.20
2019-03-15T00:07:58.221Z,66.20
2019-03-15T00:10:03.854Z,66.10
2019-03-15T00:12:09.167Z,66.00
2019-03-15T00:14:14.743Z,66.00
2019-03-15T00:16:20.861Z,65.90
2019-03-15T00:18:25.751Z,65.70
2019-03-15T00:20:31.054Z,65.90
2019-03-15T00:22:36.693Z,65.40
2019-03-15T00:24:42.325Z,65.80
2019-03-15T00:26:47.207Z,65.60
2019-03-15T00:28:52.979Z,65.60
2019-03-15T00:30:58.953Z,65.50
2019-03-15T00:33:04.909Z,65.40
2019-03-15T00:35:10.387Z,65.30
2019-03-15T00:37:16.027Z,65.20
2019-03-15T00:39:21.904Z,65.20
2019-03-15T00:41:27.339Z,65.30
2019-03-15T00:43:32.559Z,65.30
2019-03-15T00:45:38.106Z,65.40
2019-03-15T00:47:43.283Z,65.50
2019-03-15T00:49:48.782Z,66.60
2019-03-15T00:51:53.706Z,65.70
2019-03-15T00:53:58.958Z,65.90
2019-03-15T00:56:04.283Z,66.00
2019-03-15T00:58:09.534Z,66.00
2019-03-15T01:00:15.569Z,66.10
2019-03-15T01:02:20.460Z,66.10
2019-03-15T01:04:25.953Z,66.10
2019-03-15T01:06:31.066Z,65.80
2019-03-15T01:08:36.769Z,66.20
2019-03-15T01:10:42.319Z,66.20
2019-03-15T01:12:47.971Z,66.40
2019-03-15T01:14:53.512Z,66.60
2019-03-15T01:16:58.706Z,66.70
2019-03-15T01:19:04.331Z,66.60
2019-03-15T01:21:09.625Z,66.60
2019-03-15T01:23:15.576Z,66.50
2019-03-15T01:25:20.913Z,66.70
2019-03-15T01:27:25.931Z,67.60
2019-03-15T01:29:31.463Z,66.70
2019-03-15T01:31:36.506Z,66.70
2019-03-15T01:33:41.667Z,66.70
2019-03-15T01:35:46.978Z,66.70
2019-03-15T01:37:51.876Z,66.70
2019-03-15T01:39:57.619Z,66.60
2019-03-15T01:42:02.927Z,66.60
2019-03-15T01:44:08.241Z,66.60
2019-03-15T01:46:14.003Z,66.60
2019-03-15T01:48:19.853Z,66.70
2019-03-15T01:50:25.513Z,66.60
2019-03-15T01:52:30.701Z,66.60
2019-03-15T01:54:35.902Z,66.70
2019-03-15T01:56:41.351Z,66.70
2019-03-15T01:58:46.317Z,66.70
2019-03-15T02:00:52.321Z,66.60
2019-03-15T02:03:02.146Z,66.60
2019-03-15T02:05:15.935Z,66.60
2019-03-15T02:07:22.939Z,66.60
2019-03-15T02:09:27.853Z,66.40
2019-03-15T02:11:32.808Z,66.60
2019-03-15T02:13:38.280Z,66.40
2019-03-15T02:15:43.541Z,66.50
2019-03-15T02:17:48.779Z,66.60
2019-03-15T02:19:53.971Z,66.60
2019-03-15T02:21:59.178Z,66.70
2019-03-15T02:24:04.818Z,66.70
2019-03-15T02:26:10.047Z,66.60
2019-03-15T02:28:15.597Z,66.40
2019-03-15T02:30:20.931Z,66.70
2019-03-15T02:32:26.668Z,66.60
2019-03-15T02:34:31.874Z,66.50
2019-03-15T02:36:37.454Z,66.60
2019-03-15T02:38:42.336Z,66.40
2019-03-15T02:40:47.619Z,66.70
2019-03-15T02:42:53.264Z,66.70
2019-03-15T02:44:58.348Z,66.70
2019-03-15T02:47:03.542Z,66.70
2019-03-15T02:49:09.075Z,66.20
2019-03-15T02:51:14.154Z,66.80
2019-03-15T02:53:19.747Z,66.90
2019-03-15T02:55:25.020Z,66.90
2019-03-15T02:57:30.447Z,67.00
2019-03-15T02:59:35.308Z,67.00
2019-03-15T03:01:43.006Z,67.00
2019-03-15T03:03:48.568Z,67.00
2019-03-15T03:05:53.536Z,67.20
2019-03-15T03:07:59.628Z,67.50
2019-03-15T03:10:05.410Z,67.60
2019-03-15T03:12:10.674Z,67.60
2019-03-15T03:14:15.952Z,67.50
2019-03-15T03:16:21.194Z,67.60
2019-03-15T03:18:26.483Z,67.60
2019-03-15T03:20:31.722Z,67.70
2019-03-15T03:22:37.416Z,67.50
2019-03-15T03:24:42.731Z,67.60
2019-03-15T03:26:48.958Z,67.60
2019-03-15T03:28:54.254Z,67.60
2019-03-15T03:30:59.617Z,67.60
2019-03-15T03:33:04.933Z,67.60
2019-03-15T03:35:11.061Z,67.60
2019-03-15T03:37:16.981Z,67.60
2019-03-15T03:39:22.559Z,67.60
2019-03-15T03:41:28.132Z,67.50
2019-03-15T03:43:33.740Z,67.60
2019-03-15T03:45:39.044Z,67.90
2019-03-15T03:47:43.987Z,67.50
2019-03-15T03:49:48.875Z,67.60
2019-03-15T03:51:54.392Z,67.60
2019-03-15T03:53:59.284Z,67.60
2019-03-15T03:56:05.560Z,67.60
2019-03-15T03:58:10.939Z,67.60
2019-03-15T04:00:16.421Z,67.70
2019-03-15T04:02:21.662Z,67.60
2019-03-15T04:04:26.942Z,67.70
2019-03-15T04:06:32.312Z,67.70
2019-03-15T04:08:37.268Z,67.70
2019-03-15T04:10:42.165Z,67.80
2019-03-15T04:12:47.667Z,67.80
2019-03-15T04:14:53.235Z,67.80
2019-03-15T04:16:58.395Z,67.80
2019-03-15T04:19:03.633Z,67.80
2019-03-15T04:21:08.836Z,67.70
2019-03-15T04:23:14.310Z,67.70
2019-03-15T04:25:19.904Z,67.60
2019-03-15T04:27:25.115Z,67.60
2019-03-15T04:29:30.331Z,67.60
2019-03-15T04:31:35.862Z,67.60
2019-03-15T04:33:41.348Z,67.60
2019-03-15T04:35:46.836Z,67.60
2019-03-15T04:37:52.077Z,67.60
2019-03-15T04:39:57.764Z,67.70
2019-03-15T04:42:03.309Z,67.60
2019-03-15T04:44:08.865Z,67.80
2019-03-15T04:46:14.902Z,67.60
2019-03-15T04:48:20.462Z,67.60
2019-03-15T04:50:25.589Z,67.60
2019-03-15T04:52:30.807Z,67.60
2019-03-15T04:54:36.264Z,67.60
2019-03-15T04:56:41.788Z,67.60
2019-03-15T04:58:47.018Z,67.80
2019-03-15T05:00:52.307Z,67.80
2019-03-15T05:02:57.796Z,67.80
2019-03-15T05:05:03.052Z,67.70
2019-03-15T05:07:08.016Z,67.80
2019-03-15T05:09:13.672Z,67.90
2019-03-15T05:11:18.574Z,68.10
2019-03-15T05:13:24.490Z,68.20
2019-03-15T05:15:30.050Z,68.20
2019-03-15T05:17:35.277Z,68.20
2019-03-15T05:19:41.590Z,68.20
2019-03-15T05:21:47.091Z,68.10
2019-03-15T05:23:52.434Z,68.20
2019-03-15T05:25:58.021Z,68.10
2019-03-15T05:28:03.259Z,68.30
2019-03-15T05:30:08.935Z,68.30
2019-03-15T05:32:13.965Z,68.40
2019-03-15T05:34:20.521Z,68.30
2019-03-15T05:36:25.410Z,68.40
2019-03-15T05:38:30.746Z,68.40
2019-03-15T05:40:36.116Z,68.50
2019-03-15T05:42:41.964Z,68.60
2019-03-15T05:44:47.007Z,68.40
2019-03-15T05:46:52.650Z,68.50
2019-03-15T05:48:57.641Z,68.50
2019-03-15T05:51:03.540Z,68.50
2019-03-15T05:53:09.263Z,68.60
2019-03-15T05:55:14.390Z,68.60
2019-03-15T05:57:20.041Z,68.60
2019-03-15T05:59:25.223Z,68.60
2019-03-15T06:01:30.686Z,68.70
2019-03-15T06:03:47.822Z,68.80
2019-03-15T06:05:43.968Z,68.80
2019-03-15T06:07:49.181Z,68.80
2019-03-15T06:09:54.481Z,68.90
2019-03-15T06:11:59.667Z,68.90
2019-03-15T06:14:05.043Z,69.00
2019-03-15T06:16:10.584Z,69.20
2019-03-15T06:18:15.887Z,69.20
2019-03-15T06:20:20.799Z,69.30
2019-03-15T06:22:26.022Z,69.20
2019-03-15T06:24:31.610Z,69.40
2019-03-15T06:26:36.868Z,69.50
2019-03-15T06:28:42.496Z,69.40
2019-03-15T06:30:47.394Z,69.40
2019-03-15T06:32:52.340Z,69.50
2019-03-15T06:34:57.558Z,69.50
2019-03-15T06:37:03.172Z,69.50
2019-03-15T06:39:08.697Z,69.70
2019-03-15T06:41:14.614Z,69.70
2019-03-15T06:43:20.005Z,69.70
2019-03-15T06:45:25.025Z,69.70
2019-03-15T06:47:30.235Z,69.80
2019-03-15T06:49:35.650Z,69.90
2019-03-15T06:51:40.833Z,70.00
2019-03-15T06:53:47.958Z,70.00
2019-03-15T06:55:53.594Z,70.20
2019-03-15T06:57:58.895Z,70.10
2019-03-15T07:00:04.103Z,70.30
2019-03-15T07:02:08.992Z,70.20
2019-03-15T07:04:14.595Z,70.40
2019-03-15T07:06:20.170Z,71.10
2019-03-15T07:08:25.063Z,70.30
2019-03-15T07:10:30.205Z,70.30
2019-03-15T07:12:35.111Z,70.30
2019-03-15T07:14:40.942Z,69.30
2019-03-15T07:16:46.169Z,69.30
2019-03-15T07:18:51.385Z,69.30
2019-03-15T07:20:56.566Z,69.30
2019-03-15T07:23:02.060Z,69.40
2019-03-15T07:25:07.954Z,70.20
2019-03-15T07:27:13.667Z,69.40
2019-03-15T07:29:19.717Z,69.40
2019-03-15T07:31:24.863Z,69.40
2019-03-15T07:33:30.012Z,69.30
2019-03-15T07:35:35.586Z,69.50
2019-03-15T07:37:40.870Z,69.50
2019-03-15T07:39:46.081Z,69.40
2019-03-15T07:41:51.569Z,69.50
2019-03-15T07:43:57.101Z,69.50
2019-03-15T07:46:02.254Z,69.50
2019-03-15T07:48:07.421Z,69.50
2019-03-15T07:50:14.307Z,69.50
2019-03-15T07:52:23.400Z,69.50
2019-03-15T07:54:37.815Z,69.50
2019-03-15T07:56:37.162Z,69.60
2019-03-15T07:58:43.142Z,69.50
2019-03-15T08:00:49.780Z,69.60
2019-03-15T08:02:54.680Z,69.70
2019-03-15T08:05:02.607Z,69.60
2019-03-15T08:07:08.009Z,69.60
2019-03-15T08:09:13.648Z,69.70
2019-03-15T08:11:19.122Z,69.60
2019-03-15T08:13:24.281Z,69.60
2019-03-15T08:15:29.692Z,69.60
2019-03-15T08:17:34.764Z,69.50
2019-03-15T08:19:39.865Z,69.60
2019-03-15T08:21:44.755Z,69.60
2019-03-15T08:23:49.646Z,69.50
2019-03-15T08:25:54.884Z,69.60
2019-03-15T08:28:00.126Z,69.50
2019-03-15T08:30:07.077Z,69.60
2019-03-15T08:32:12.380Z,69.80
2019-03-15T08:34:19.730Z,69.90
2019-03-15T08:36:25.404Z,69.90
2019-03-15T08:38:30.287Z,69.90
2019-03-15T08:40:35.723Z,69.70
2019-03-15T08:42:41.061Z,69.80
2019-03-15T08:44:46.926Z,70.10
2019-03-15T08:46:51.974Z,69.60
2019-03-15T08:48:56.901Z,69.50
2019-03-15T08:51:02.348Z,69.40
2019-03-15T08:53:07.646Z,69.40
2019-03-15T08:55:13.220Z,69.40
2019-03-15T08:57:18.876Z,69.40
2019-03-15T08:59:24.082Z,69.30
2019-03-15T09:01:29.690Z,69.10
2019-03-15T09:03:34.785Z,69.20
2019-03-15T09:05:40.085Z,69.20
2019-03-15T09:07:45.123Z,69.30
2019-03-15T09:09:51.167Z,69.20
2019-03-15T09:11:56.398Z,69.30
2019-03-15T09:14:01.587Z,69.40
2019-03-15T09:16:07.312Z,69.30
2019-03-15T09:18:12.842Z,69.20
2019-03-15T09:20:18.327Z,69.40
2019-03-15T09:22:24.108Z,69.50
2019-03-15T09:24:29.254Z,70.40
2019-03-15T09:26:34.253Z,69.70
2019-03-15T09:28:39.160Z,69.70
2019-03-15T09:30:44.096Z,69.80
2019-03-15T09:32:49.184Z,69.90
2019-03-15T09:34:55.855Z,70.10
2019-03-15T09:37:06.825Z,70.20
2019-03-15T09:39:11.770Z,70.30
2019-03-15T09:41:30.513Z,70.40
2019-03-15T09:43:24.265Z,70.50
2019-03-15T09:45:29.795Z,70.90
2019-03-15T09:47:34.811Z,70.90
2019-03-15T09:49:39.723Z,70.90
2019-03-15T09:51:45.522Z,71.00
2019-03-15T09:53:50.679Z,71.10
2019-03-15T09:55:55.631Z,71.20
2019-03-15T09:58:01.636Z,71.20
2019-03-15T10:00:09.917Z,71.30
2019-03-15T10:02:15.632Z,71.40
2019-03-15T10:04:20.518Z,71.60
2019-03-15T10:06:25.747Z,71.70
2019-03-15T10:08:30.979Z,71.70
2019-03-15T10:10:36.146Z,71.70
2019-03-15T10:12:41.334Z,71.80
2019-03-15T10:14:46.314Z,71.80
2019-03-15T10:16:51.291Z,71.80
2019-03-15T10:18:56.568Z,72.00
2019-03-15T10:21:01.711Z,72.10
2019-03-15T10:23:06.853Z,72.20
2019-03-15T10:25:12.291Z,72.40
2019-03-15T10:27:17.879Z,72.40
2019-03-15T10:29:22.779Z,72.40
2019-03-15T10:31:28.131Z,72.60
2019-03-15T10:33:33.288Z,72.70
2019-03-15T10:35:38.238Z,72.90
2019-03-15T10:37:43.636Z,73.00
2019-03-15T10:39:48.594Z,73.20
2019-03-15T10:41:54.048Z,73.40
2019-03-15T10:43:59.732Z,73.50
2019-03-15T10:46:06.305Z,73.70
2019-03-15T10:48:24.177Z,73.90
2019-03-15T10:50:18.451Z,74.00
2019-03-15T10:52:23.801Z,74.10
2019-03-15T10:54:29.052Z,74.20
2019-03-15T10:56:34.246Z,74.40
2019-03-15T10:58:39.189Z,74.40
2019-03-15T11:00:44.819Z,74.60
2019-03-15T11:02:49.935Z,74.70
2019-03-15T11:04:55.449Z,74.80
2019-03-15T11:07:01.010Z,74.80
2019-03-15T11:09:07.665Z,75.00
2019-03-15T11:11:13.251Z,75.10
2019-03-15T11:13:18.965Z,75.20
2019-03-15T11:15:24.228Z,75.30
2019-03-15T11:17:29.425Z,75.30
2019-03-15T11:19:34.929Z,75.50
2019-03-15T11:21:40.458Z,75.50
2019-03-15T11:23:46.008Z,75.70
2019-03-15T11:25:51.267Z,75.60
2019-03-15T11:27:56.769Z,75.60
2019-03-15T11:30:02.423Z,75.50
2019-03-15T11:32:07.556Z,75.60
2019-03-15T11:34:12.467Z,75.60
2019-03-15T11:36:17.509Z,75.50
2019-03-15T11:38:23.445Z,75.30
2019-03-15T11:40:28.717Z,75.30
2019-03-15T11:42:34.314Z,75.20
2019-03-15T11:44:39.474Z,75.10
2019-03-15T11:46:45.165Z,75.00
2019-03-15T11:48:50.360Z,74.80
2019-03-15T11:50:55.574Z,74.70
2019-03-15T11:53:01.112Z,74.60
2019-03-15T11:55:07.351Z,74.60
2019-03-15T11:57:12.971Z,74.50
2019-03-15T11:59:18.158Z,74.40
2019-03-15T12:01:23.079Z,74.30
2019-03-15T12:03:28.885Z,74.40
2019-03-15T12:05:33.851Z,74.30
2019-03-15T12:07:39.671Z,74.10
2019-03-15T12:09:45.078Z,74.20
2019-03-15T12:11:50.684Z,74.10
2019-03-15T12:13:56.157Z,74.00
2019-03-15T12:16:01.387Z,74.00
2019-03-15T12:18:08.562Z,74.00
2019-03-15T12:20:14.657Z,73.90
2019-03-15T12:22:19.985Z,73.80
2019-03-15T12:24:25.502Z,74.00
2019-03-15T12:26:40.169Z,73.80
2019-03-15T12:28:37.824Z,73.70
2019-03-15T12:30:43.326Z,73.70
2019-03-15T12:32:50.869Z,73.50
2019-03-15T12:34:56.387Z,73.20
2019-03-15T12:37:01.389Z,73.20
2019-03-15T12:39:08.433Z,73.10
2019-03-15T12:41:13.939Z,73.10
2019-03-15T12:43:19.481Z,72.90
2019-03-15T12:45:24.950Z,72.80
2019-03-15T12:47:30.165Z,72.70
2019-03-15T12:49:35.103Z,72.70
2019-03-15T12:51:40.562Z,72.50
2019-03-15T12:53:45.921Z,72.50
2019-03-15T12:55:51.486Z,72.40
2019-03-15T12:57:56.437Z,72.40
2019-03-15T13:00:01.602Z,72.50
2019-03-15T13:02:06.651Z,72.30
2019-03-15T13:04:12.266Z,72.20
2019-03-15T13:06:18.091Z,72.20
2019-03-15T13:08:23.285Z,72.20
2019-03-15T13:10:28.601Z,72.10
2019-03-15T13:12:33.847Z,72.20
2019-03-15T13:14:39.059Z,72.00
2019-03-15T13:16:44.278Z,71.90
2019-03-15T13:18:49.925Z,71.90
2019-03-15T13:20:55.001Z,71.90
2019-03-15T13:23:00.949Z,72.00
2019-03-15T13:25:07.127Z,72.10
2019-03-15T13:27:12.321Z,71.80
2019-03-15T13:29:17.275Z,71.90
2019-03-15T13:31:22.890Z,72.10
2019-03-15T13:33:28.633Z,72.10
2019-03-15T13:35:34.132Z,72.10
2019-03-15T13:37:42.722Z,72.10
2019-03-15T13:39:47.075Z,72.00
2019-03-15T13:41:52.290Z,72.00
2019-03-15T13:43:58.191Z,72.10
2019-03-15T13:46:03.487Z,71.80
2019-03-15T13:48:09.334Z,71.90
2019-03-15T13:50:14.604Z,71.80
2019-03-15T13:52:19.855Z,71.40
2019-03-15T13:54:25.418Z,71.30
2019-03-15T13:56:30.308Z,71.30
2019-03-15T13:58:35.810Z,71.20
2019-03-15T14:00:41.517Z,71.00
2019-03-15T14:02:46.958Z,70.90
2019-03-15T14:04:52.502Z,71.00
2019-03-15T14:06:57.816Z,70.70
2019-03-15T14:09:03.342Z,70.60
2019-03-15T14:11:08.919Z,70.40
2019-03-15T14:13:15.362Z,70.20
2019-03-15T14:15:20.828Z,70.10
2019-03-15T14:17:25.994Z,69.90
2019-03-15T14:19:31.847Z,69.70
2019-03-15T14:21:37.134Z,69.80
2019-03-15T14:23:42.557Z,69.70
2019-03-15T14:25:48.606Z,69.70
2019-03-15T14:27:54.518Z,69.70
2019-03-15T14:29:59.775Z,69.60
2019-03-15T14:32:06.892Z,69.50
2019-03-15T14:34:11.970Z,69.40
2019-03-15T14:36:17.547Z,69.30
2019-03-15T14:38:23.448Z,69.30
2019-03-15T14:40:28.906Z,69.30
2019-03-15T14:42:34.006Z,69.40
2019-03-15T14:44:39.702Z,69.40
2019-03-15T14:46:44.851Z,69.40
2019-03-15T14:48:50.661Z,69.30
2019-03-15T14:50:56.106Z,69.30
2019-03-15T14:53:01.684Z,69.30
2019-03-15T14:55:06.958Z,69.30
2019-03-15T14:57:12.737Z,69.20
2019-03-15T14:59:18.217Z,69.20
2019-03-15T15:01:23.415Z,69.30
2019-03-15T15:03:29.546Z,69.20
2019-03-15T15:05:34.918Z,69.30
2019-03-15T15:07:39.957Z,69.30
2019-03-15T15:09:47.540Z,69.30
2019-03-15T15:11:52.515Z,69.40
2019-03-15T15:13:57.446Z,69.30
2019-03-15T15:16:02.610Z,70.10
2019-03-15T15:18:08.231Z,69.30
2019-03-15T15:20:13.693Z,69.30
2019-03-15T15:22:19.125Z,69.40
2019-03-15T15:24:24.636Z,70.30
2019-03-15T15:26:29.869Z,69.60
2019-03-15T15:28:35.243Z,69.80
2019-03-15T15:30:40.227Z,69.70
2019-03-15T15:32:46.477Z,70.00
2019-03-15T15:34:52.113Z,70.10
2019-03-15T15:36:57.383Z,70.20
2019-03-15T15:39:02.639Z,70.10
2019-03-15T15:41:07.868Z,70.00
2019-03-15T15:43:13.218Z,70.10
2019-03-15T15:45:18.326Z,70.20
2019-03-15T15:47:23.344Z,70.20
2019-03-15T15:49:29.120Z,70.10
2019-03-15T15:51:34.108Z,70.10
2019-03-15T15:53:39.945Z,70.00
2019-03-15T15:55:45.191Z,70.10
2019-03-15T15:57:50.594Z,70.10
2019-03-15T15:59:56.247Z,70.00
2019-03-15T16:02:01.468Z,70.10
2019-03-15T16:04:06.503Z,70.00
2019-03-15T16:06:12.461Z,69.90
2019-03-15T16:08:17.354Z,69.90
2019-03-15T16:10:22.400Z,70.00
2019-03-15T16:12:28.037Z,70.00
2019-03-15T16:14:33.295Z,70.00
2019-03-15T16:16:38.482Z,70.00
2019-03-15T16:18:43.857Z,70.00
2019-03-15T16:20:49.731Z,70.10
2019-03-15T16:22:55.161Z,70.00
2019-03-15T16:25:00.520Z,70.00
2019-03-15T16:27:05.624Z,70.00
2019-03-15T16:29:10.867Z,70.00
2019-03-15T16:31:16.028Z,70.00
2019-03-15T16:33:21.650Z,70.00
2019-03-15T16:35:26.688Z,70.10
2019-03-15T16:37:31.950Z,70.00
2019-03-15T16:39:37.195Z,70.10
2019-03-15T16:41:42.859Z,70.10
2019-03-15T16:43:49.334Z,70.10
2019-03-15T16:45:54.759Z,70.10
2019-03-15T16:48:00.740Z,70.10
2019-03-15T16:50:08.692Z,70.20
2019-03-15T16:52:14.403Z,70.20
2019-03-15T16:54:19.619Z,70.20
2019-03-15T16:56:25.509Z,70.20
2019-03-15T16:58:30.512Z,70.20
2019-03-15T17:00:36.358Z,70.20
2019-03-15T17:02:42.381Z,70.30
2019-03-15T17:04:48.435Z,70.20
2019-03-15T17:06:53.912Z,70.20
2019-03-15T17:08:59.887Z,70.30
2019-03-15T17:11:05.547Z,70.30
2019-03-15T17:13:10.917Z,70.30
2019-03-15T17:15:16.533Z,70.20
2019-03-15T17:17:21.852Z,70.20
2019-03-15T17:19:27.362Z,70.20
2019-03-15T17:21:33.360Z,70.30
2019-03-15T17:23:39.137Z,70.20
2019-03-15T17:25:44.499Z,70.20
2019-03-15T17:27:50.094Z,70.30
2019-03-15T17:29:55.554Z,70.30
2019-03-15T17:32:00.546Z,70.30
2019-03-15T17:34:05.593Z,70.40
2019-03-15T17:36:11.111Z,70.40
2019-03-15T17:38:16.476Z,70.40
2019-03-15T17:40:22.201Z,70.50
2019-03-15T17:42:27.508Z,70.50
2019-03-15T17:44:33.322Z,70.50
2019-03-15T17:46:38.590Z,70.30
2019-03-15T17:48:43.579Z,70.20
2019-03-15T17:50:49.548Z,70.10
2019-03-15T17:52:54.879Z,70.10
2019-03-15T17:54:59.756Z,70.00
2019-03-15T17:57:06.213Z,70.00
2019-03-15T17:59:12.651Z,70.10
2019-03-15T18:01:18.102Z,70.10
2019-03-15T18:03:24.860Z,70.10
2019-03-15T18:05:30.192Z,69.90
2019-03-15T18:07:35.316Z,69.70
2019-03-15T18:09:40.216Z,69.40
2019-03-15T18:11:45.871Z,69.20
2019-03-15T18:13:52.146Z,69.30
2019-03-15T18:15:57.593Z,69.10
2019-03-15T18:18:02.716Z,69.10
2019-03-15T18:20:07.891Z,69.10
2019-03-15T18:22:13.187Z,69.00
2019-03-15T18:24:18.640Z,68.90
2019-03-15T18:26:23.869Z,69.00
2019-03-15T18:28:28.843Z,68.90
2019-03-15T18:30:34.067Z,68.10
2019-03-15T18:32:39.437Z,67.30
2019-03-15T18:34:45.446Z,66.50
2019-03-15T18:36:51.272Z,66.10
2019-03-15T18:38:59.733Z,66.10
2019-03-15T18:41:05.121Z,66.00
2019-03-15T18:43:10.181Z,66.10
2019-03-15T18:45:15.497Z,66.00
2019-03-15T18:47:20.391Z,65.70
2019-03-15T18:49:25.693Z,65.60
2019-03-15T18:51:30.933Z,65.30
2019-03-15T18:53:37.611Z,65.20
2019-03-15T18:55:45.932Z,64.90
2019-03-15T18:57:50.999Z,65.10
2019-03-15T18:59:56.246Z,65.30
2019-03-15T19:02:02.023Z,65.30
2019-03-15T19:04:08.101Z,65.20
2019-03-15T19:06:13.297Z,65.10
2019-03-15T19:08:18.438Z,64.60
2019-03-15T19:10:23.599Z,64.50
2019-03-15T19:12:28.845Z,64.50
2019-03-15T19:14:34.683Z,64.70
2019-03-15T19:16:39.705Z,64.20
2019-03-15T19:18:45.002Z,63.20
2019-03-15T19:20:50.991Z,63.10
2019-03-15T19:22:57.245Z,63.10
2019-03-15T19:25:02.486Z,63.40
2019-03-15T19:27:07.639Z,63.40
2019-03-15T19:29:12.906Z,63.40
2019-03-15T19:31:18.056Z,63.50
2019-03-15T19:33:23.318Z,63.40
2019-03-15T19:35:28.284Z,63.40
2019-03-15T19:37:33.833Z,63.40
2019-03-15T19:39:38.831Z,63.60
2019-03-15T19:41:44.846Z,63.70
2019-03-15T19:43:49.743Z,63.90
2019-03-15T19:45:54.937Z,63.70
2019-03-15T19:48:00.014Z,63.50
2019-03-15T19:50:07.119Z,63.80
2019-03-15T19:52:13.059Z,64.00
2019-03-15T19:54:18.282Z,64.60
2019-03-15T19:56:23.586Z,63.90
2019-03-15T19:58:32.228Z,63.80
2019-03-15T20:00:37.596Z,63.70
2019-03-15T20:02:42.828Z,63.80
2019-03-15T20:04:48.300Z,63.80
2019-03-15T20:06:53.214Z,63.90
2019-03-15T20:08:58.188Z,65.10
2019-03-15T20:11:03.944Z,64.20
2019-03-15T20:13:09.618Z,64.20
2019-03-15T20:15:15.125Z,64.30
2019-03-15T20:17:20.750Z,64.60
2019-03-15T20:19:26.950Z,64.70
2019-03-15T20:21:33.044Z,64.60
2019-03-15T20:23:38.363Z,64.80
2019-03-15T20:25:44.618Z,64.90
2019-03-15T20:27:51.656Z,65.10
2019-03-15T20:29:57.144Z,65.10
2019-03-15T20:32:02.739Z,65.10
2019-03-15T20:34:08.650Z,65.20
2019-03-15T20:36:14.858Z,65.20
2019-03-15T20:38:20.090Z,65.50
2019-03-15T20:40:25.919Z,65.30
2019-03-15T20:42:31.510Z,65.40
2019-03-15T20:44:37.354Z,65.30
2019-03-15T20:46:42.899Z,65.40
2019-03-15T20:48:48.574Z,65.30
2019-03-15T20:50:53.872Z,65.30
2019-03-15T20:53:08.620Z,65.40
2019-03-15T20:55:07.129Z,65.50
2019-03-15T20:57:13.912Z,65.40
2019-03-15T20:59:19.121Z,65.40
2019-03-15T21:01:24.322Z,65.20
2019-03-15T21:03:29.905Z,65.10
2019-03-15T21:05:34.927Z,65.10
2019-03-15T21:07:43.169Z,65.20
2019-03-15T21:09:47.239Z,65.20
2019-03-15T21:11:52.645Z,65.20
2019-03-15T21:13:57.558Z,65.20
2019-03-15T21:16:03.057Z,65.20
2019-03-15T21:18:08.185Z,65.30
2019-03-15T21:20:13.840Z,65.40
2019-03-15T21:22:19.240Z,65.40
2019-03-15T21:24:25.354Z,65.40
2019-03-15T21:26:30.783Z,65.50
2019-03-15T21:28:36.492Z,65.60
2019-03-15T21:30:48.358Z,65.50
2019-03-15T21:32:48.890Z,65.60
2019-03-15T21:34:54.359Z,65.70
2019-03-15T21:37:00.222Z,65.80
2019-03-15T21:39:07.469Z,66.70
2019-03-15T21:41:13.003Z,65.80
2019-03-15T21:43:18.855Z,65.70
2019-03-15T21:45:24.204Z,65.80
2019-03-15T21:47:29.813Z,65.70
2019-03-15T21:49:35.878Z,65.50
2019-03-15T21:51:40.916Z,65.60
2019-03-15T21:53:45.906Z,65.50
2019-03-15T21:55:51.702Z,64.70
2019-03-15T21:57:57.169Z,65.40
2019-03-15T22:00:03.195Z,65.40
2019-03-15T22:02:09.013Z,65.40
2019-03-15T22:04:14.270Z,65.40
2019-03-15T22:06:19.245Z,65.50
2019-03-15T22:08:24.773Z,65.40
2019-03-15T22:10:30.358Z,65.40
2019-03-15T22:12:35.670Z,65.30
2019-03-15T22:14:41.416Z,65.40
2019-03-15T22:16:46.891Z,65.40
2019-03-15T22:18:52.222Z,65.40
2019-03-15T22:20:57.990Z,65.40
2019-03-15T22:23:03.994Z,65.30
2019-03-15T22:25:09.402Z,65.40
2019-03-15T22:27:14.742Z,65.40
2019-03-15T22:29:19.979Z,65.30
2019-03-15T22:31:25.547Z,65.20
2019-03-15T22:33:30.440Z,65.50
2019-03-15T22:35:35.682Z,65.40
2019-03-15T22:37:41.020Z,65.50
2019-03-15T22:39:46.495Z,65.50
2019-03-15T22:41:51.720Z,65.40
2019-03-15T22:43:56.892Z,65.40
2019-03-15T22:46:02.368Z,65.50
2019-03-15T22:48:07.824Z,65.50
2019-03-15T22:50:13.578Z,65.30
2019-03-15T22:52:18.541Z,65.30
2019-03-15T22:54:23.494Z,65.30
2019-03-15T22:56:29.115Z,65.30
2019-03-15T22:58:34.306Z,65.30
2019-03-15T23:00:39.393Z,65.30
2019-03-15T23:02:44.948Z,65.20
2019-03-15T23:04:50.573Z,65.40
2019-03-15T23:06:56.843Z,65.30
2019-03-15T23:09:02.006Z,65.30
2019-03-15T23:11:07.025Z,65.40
2019-03-15T23:13:12.391Z,65.40
2019-03-15T23:15:17.611Z,65.40
2019-03-15T23:17:23.379Z,65.50
2019-03-15T23:19:29.307Z,65.60
2019-03-15T23:21:34.623Z,65.70
2019-03-15T23:23:40.133Z,65.70
2019-03-15T23:25:45.507Z,65.60
2019-03-15T23:27:51.187Z,65.60
2019-03-15T23:29:57.028Z,65.70
2019-03-15T23:32:01.980Z,65.60
2019-03-15T23:34:06.879Z,65.60
2019-03-15T23:36:13.000Z,65.50
2019-03-15T23:38:19.065Z,65.60
2019-03-15T23:40:23.984Z,65.60
2019-03-15T23:42:29.072Z,65.60
2019-03-15T23:44:34.635Z,65.60
2019-03-15T23:46:39.715Z,65.70
2019-03-15T23:48:45.367Z,65.80
2019-03-15T23:50:51.025Z,65.90
2019-03-15T23:52:56.046Z,66.00
2019-03-15T23:55:01.514Z,66.00
2019-03-15T23:57:08.276Z,66.00
2019-03-15T23:59:13.836Z,65.90
